Data for 09/20/2005

Time Sea-Level Adjusted Pressure Absolute Pressure Temperature Relative Humidity Dew Point   
(mb) (inHg) (mb) (inHg) (C) (F) (%) (C) (F)
00:05 1022 30.18 851 25.13 13 55.4 32 -3 26.5
00:10 1022 30.18 851 25.13 13 55.4 32 -3.4 25.9
00:15 1022 30.18 851 25.13 13.2 55.7 30 -3.9 25
00:20 1022 30.18 851 25.13 13.9 57.1 28 -4.4 24.1
00:25 1022 30.18 851 25.13 13.9 57 30 -3.5 25.8
00:30 1022 30.18 851 25.13 13.1 55.5 30 -4 24.7
00:35 1022 30.18 851 25.13 12.9 55.1 32 -3.3 26.1
00:40 1022 30.18 851 25.13 12.8 55 31 -3.9 25
00:45 1022 30.18 851 25.13 12.4 54.4 36 -2.3 27.8
00:50 1022 30.18 851 25.13 12.2 53.9 33 -3.7 25.3
00:55 1022 30.18 851 25.13 11.8 53.2 41 -0.9 30.4
01:00 1022 30.18 851 25.13 10.3 50.5 43 -1.8 28.7
01:05 1022 30.18 851 25.13 10 50 46 -1 30.2
01:10 1022 30.18 851 25.13 9.8 49.6 45 -1.6 29.2
01:15 1022 30.18 851 25.13 9.9 49.8 46 -1.1 30
01:20 1022 30.18 851 25.13 10 50.1 42 -2.3 27.9
01:25 1022 30.18 851 25.13 10.5 50.9 40 -2.6 27.3
01:30 1022 30.18 851 25.13 11 51.8 39 -2.5 27.6
01:35 1022 30.18 851 25.13 10.4 50.7 43 -1.5 29.2
01:40 1022 30.18 851 25.13 9.9 49.9 42 -2.4 27.7
01:45 1022 30.18 851 25.13 10.6 51 39 -2.8 26.9
01:50 1022 30.18 851 25.13 10.3 50.5 39 -3.1 26.5
01:55 1022 30.18 851 25.13 10.8 51.4 38 -3 26.7
02:00 1022 30.18 851 25.13 10.5 51 39 -2.7 27.2
02:05 1022 30.18 851 25.13 10.7 51.3 39 -2.7 27.2
02:10 1022 30.18 851 25.13 10.4 50.8 42 -1.8 28.7
02:15 1022 30.18 851 25.13 10.4 50.6 39 -3 26.5
02:20 1022 30.18 852 25.16 10.6 51 40 -2.3 27.8
02:25 1022 30.18 852 25.16 10.7 51.3 41 -1.9 28.5
02:30 1022 30.18 852 25.16 10.6 51.1 42 -1.8 28.7
02:35 1022 30.18 852 25.16 10 50 42 -2.3 27.8
02:40 1022 30.18 852 25.16 10.2 50.3 38 -3.5 25.7
02:45 1022 30.18 852 25.16 10.9 51.5 39 -2.6 27.3
02:50 1022 30.18 852 25.16 10.4 50.7 41 -2.2 28.1
02:55 1022 30.18 852 25.16 10 49.9 41 -2.6 27.3
03:00 1022 30.18 852 25.16 9.9 49.8 40 -3.1 26.4
03:05 1022 30.18 852 25.16 10.8 51.4 37 -3.3 26.1
03:10 1022 30.18 852 25.16 10.6 51 39 -2.6 27.3
03:15 1022 30.18 852 25.16 10.3 50.5 38 -3.2 26.2
03:20 1022 30.18 852 25.16 10.7 51.2 38 -3.1 26.5
03:25 1022 30.18 852 25.16 10.8 51.5 35 -3.9 25
03:30 1022 30.18 852 25.16 11.1 52 37 -3.2 26.3
03:35 1022 30.18 852 25.16 11 51.8 39 -2.5 27.4
03:40 1022 30.18 852 25.16 10.7 51.3 36 -3.6 25.5
03:45 1022 30.18 852 25.16 10.8 51.5 39 -2.7 27.2
03:50 1022 30.18 852 25.16 10.8 51.4 35 -4.1 24.6
03:55 1022 30.18 851 25.13 10.9 51.6 43 -1 30.2
04:00 1022 30.18 852 25.16 9.2 48.5 46 -1.7 28.9
04:05 1022 30.18 852 25.16 9.3 48.8 44 -2.3 27.9
04:10 1022 30.18 852 25.16 9.3 48.8 43 -2.5 27.6
04:15 1022 30.18 852 25.16 10 50 41 -2.7 27.1
04:20 1022 30.18 852 25.16 9.5 49 46 -1.6 29.1
04:25 1022 30.18 852 25.16 8.9 48 45 -2.4 27.7
04:30 1022 30.18 852 25.16 9.3 48.8 44 -2.4 27.8
04:35 1023 30.21 852 25.16 9.4 48.9 47 -1.4 29.6
04:40 1023 30.21 852 25.16 8.4 47.1 48 -1.8 28.7
04:45 1023 30.21 852 25.16 7.9 46.3 52 -1.3 29.6
04:50 1023 30.21 852 25.16 7.9 46.2 46 -2.9 26.8
04:55 1023 30.21 852 25.16 9 48.2 45 -2.2 28
05:00 1023 30.21 852 25.16 8.9 48 46 -2.1 28.1
05:05 1023 30.21 852 25.16 9.1 48.3 46 -1.9 28.7
05:10 1023 30.21 852 25.16 8.4 47.2 47 -2.1 28.1
05:15 1023 30.21 852 25.16 8.1 46.6 51 -1.5 29.3
05:20 1023 30.21 852 25.16 7.3 45.1 54 -1.3 29.7
05:25 1023 30.21 852 25.16 7.9 46.1 49 -2.1 28.3
05:30 1023 30.21 852 25.16 8.7 47.7 46 -2.3 27.9
05:35 1023 30.21 852 25.16 8.8 47.8 46 -2.3 27.8
05:40 1023 30.21 852 25.16 9.1 48.5 42 -3.2 26.2
05:45 1023 30.21 852 25.16 9.4 48.9 44 -2.1 28.3
05:50 1023 30.21 852 25.16 8.3 46.9 50 -1.5 29.3
05:55 1023 30.21 852 25.16 8 46.3 48 -2.3 27.8
06:00 1023 30.21 852 25.16 8.4 47 47 -2.3 27.8
06:05 1023 30.21 852 25.16 8.3 47 48 -1.9 28.5
06:10 1023 30.21 852 25.16 7.9 46.2 49 -2.1 28.2
06:15 1023 30.21 852 25.16 7.7 45.8 52 -1.5 29.3
06:20 1023 30.21 852 25.16 7.3 45.1 50 -2.4 27.7
06:25 1023 30.21 852 25.16 8.4 47.2 44 -3 26.6
06:30 1023 30.21 852 25.16 9 48.3 44 -2.7 27.2
06:35 1023 30.21 852 25.16 8.7 47.6 48 -1.6 29.1
06:40 1023 30.21 852 25.16 8.2 46.7 44 -3.2 26.3
06:45 1023 30.21 852 25.16 8.7 47.6 46 -2.2 28.1
06:50 1023 30.21 852 25.16 8.5 47.3 45 -2.7 27.1
06:55 1023 30.21 852 25.16 8.3 47 48 -2 28.5
07:00 1023 30.21 852 25.16 8 46.4 49 -2.2 28.1
07:05 1023 30.21 852 25.16 8.1 46.6 46 -2.7 27.1
07:10 1023 30.21 852 25.16 8.4 47.1 46 -2.5 27.5
07:15 1023 30.21 852 25.16 8.2 46.8 46 -2.6 27.3
07:20 1023 30.21 852 25.16 8.7 47.7 43 -3 26.6
07:25 1023 30.21 852 25.16 9.4 48.9 44 -2.3 27.8
07:30 1023 30.21 852 25.16 9.3 48.8 46 -1.8 28.7
07:35 1023 30.21 852 25.16 8.4 47 49 -1.7 29
07:40 1023 30.21 852 25.16 8.3 47 48 -2.2 28.1
07:45 1023 30.21 852 25.16 8.3 47 47 -2.2 28.1
07:50 1023 30.21 852 25.16 8.7 47.7 46 -2.2 28
07:55 1023 30.21 852 25.16 9.1 48.3 45 -2.2 28.1
08:00 1023 30.21 852 25.16 9.4 48.9 43 -2.6 27.4
08:05 1023 30.21 852 25.16 9.9 49.9 41 -2.7 27.2
08:10 1023 30.21 852 25.16 10.3 50.6 41 -2.4 27.7
08:15 1023 30.21 852 25.16 10.3 50.5 41 -2.3 27.8
08:20 1023 30.21 852 25.16 10.7 51.3 39 -2.6 27.3
08:25 1023 30.21 852 25.16 11.2 52.2 40 -1.7 28.9
08:30 1023 30.21 852 25.16 11.7 53 34 -3.5 25.7
08:35 1023 30.21 852 25.16 12.2 53.9 35 -3 26.7
08:40 1023 30.21 852 25.16 12.2 54 40 -0.9 30.5
08:45 1023 30.21 852 25.16 12.5 54.4 39 -1.2 29.9
08:50 1023 30.21 852 25.16 13.1 55.6 33 -2.7 27.2
08:55 1023 30.21 852 25.16 13.7 56.7 32 -2.4 27.6
09:00 1023 30.21 852 25.16 14 57.1 37 -0.6 31
09:05 1023 30.21 852 25.16 14.5 58 37 -0.1 31.8
09:10 1023 30.21 852 25.16 14.7 58.4 38 0.4 32.8
09:15 1023 30.21 852 25.16 15.4 59.8 35 0.1 32.2
09:20 1023 30.21 852 25.16 16 60.7 37 1.4 34.5
09:25 1023 30.21 852 25.16 16 60.8 38 1.7 35
09:30 1023 30.21 852 25.16 16.2 61.2 37 1.8 35.2
09:35 1023 30.21 852 25.16 16.8 62.2 32 0 32.1
09:40 1023 30.21 852 25.16 16.9 62.5 34 1 33.9
09:45 1023 30.21 852 25.16 17.9 64.2 31 0.7 33.3
09:50 1023 30.21 852 25.16 18.6 65.4 29 0.4 32.7
09:55 1023 30.21 852 25.16 19.1 66.4 25 -1 30.2
10:00 1023 30.21 852 25.16 19.7 67.5 23 -1.8 28.8
10:05 1023 30.21 852 25.16 20 67.9 25 -0.5 31.2
10:10 1023 30.21 852 25.16 19.8 67.7 26 0.2 32.3
10:15 1023 30.21 852 25.16 20.1 68.2 23 -1.5 29.3
10:20 1023 30.21 852 25.16 20.2 68.4 21 -2.8 26.9
10:25 1023 30.21 852 25.16 21 69.8 22 -1.4 29.4
10:30 1023 30.21 852 25.16 20.7 69.3 23 -1.3 29.7
10:35 1023 30.21 852 25.16 20.7 69.3 22 -1.3 29.6
10:40 1023 30.21 852 25.16 21.3 70.3 20 -2.1 28.2
10:45 1023 30.21 852 25.16 21.5 70.8 20 -1.9 28.5
10:50 1023 30.21 852 25.16 21.5 70.8 22 -1.1 29.9
10:55 1022 30.18 852 25.16 22.2 71.9 20 -1.5 29.3
11:00 1022 30.18 852 25.16 22.5 72.5 20 -1.6 29
11:05 1022 30.18 852 25.16 22.9 73.2 19 -1.7 28.9
11:10 1022 30.18 851 25.13 23.6 74.5 19 -1 30.2
11:15 1022 30.18 851 25.13 23.8 74.8 20 -0.2 31.7
11:20 1022 30.18 851 25.13 24 75.2 20 -0.4 31.4
11:25 1022 30.18 851 25.13 24 75.1 20 -0.4 31.3
11:30 1022 30.18 851 25.13 24.3 75.8 16 -3.2 26.3
11:35 1022 30.18 851 25.13 24.1 75.4 16 -3.3 26
11:40 1022 30.18 851 25.13 24 75.3 16 -3.3 26
11:45 1022 30.18 851 25.13 24.3 75.8 15 -3.7 25.3
11:50 1022 30.18 851 25.13 24.3 75.7 15 -3.9 24.9
11:55 1021 30.15 851 25.13 24.1 75.4 15 -3.6 25.5
12:00 1021 30.15 851 25.13 24.3 75.7 15 -4.1 24.6
12:05 1021 30.15 851 25.13 24.1 75.4 15 -3.8 25.1
12:10 1021 30.15 850 25.1 24.3 75.7 15 -3.7 25.4
12:15 1021 30.15 850 25.1 24.4 75.8 15 -3.7 25.4
12:20 1021 30.15 850 25.1 24.5 76 14 -4.4 24.1
12:25 1021 30.15 850 25.1 24.6 76.2 15 -3.7 25.3
12:30 1021 30.15 850 25.1 24.7 76.5 14 -4.1 24.7
12:35 1021 30.15 850 25.1 25 77.1 14 -3.8 25.1
12:40 1021 30.15 850 25.1 24.9 76.8 13 -4.7 23.6
12:45 1021 30.15 850 25.1 24.6 76.2 14 -4.4 24.1
12:50 1021 30.15 850 25.1 24.4 75.8 14 -4.9 23.2
12:55 1021 30.15 850 25.1 24.5 76.2 14 -4.2 24.4
13:00 1021 30.15 850 25.1 25 77 14 -4.4 24.1
13:05 1021 30.15 850 25.1 24.9 76.9 14 -3.9 24.9
13:10 1021 30.15 850 25.1 24.8 76.6 14 -4.2 24.5
13:15 1021 30.15 850 25.1 25 77.1 14 -4.1 24.6
13:20 1021 30.15 850 25.1 24.7 76.5 14 -4.1 24.7
13:25 1021 30.15 850 25.1 24.8 76.6 14 -4.2 24.4
13:30 1021 30.15 850 25.1 25.2 77.4 14 -4.2 24.4
13:35 1021 30.15 850 25.1 25.2 77.3 13 -4.6 23.8
13:40 1020 30.12 850 25.1 25.3 77.5 13 -4.5 23.8
13:45 1020 30.12 850 25.1 25.4 77.6 13 -4.4 24.2
13:50 1020 30.12 849 25.07 25.7 78.3 14 -3.5 25.7
13:55 1020 30.12 849 25.07 25.8 78.4 13 -4.4 24.1
14:00 1020 30.12 849 25.07 25.9 78.6 13 -4.2 24.5
14:05 1020 30.12 849 25.07 25.8 78.4 13 -4.5 23.8
14:10 1020 30.12 849 25.07 25.6 78.1 13 -4.6 23.8
14:15 1020 30.12 849 25.07 25.9 78.6 13 -3.9 24.9
14:20 1020 30.12 849 25.07 26.2 79.2 13 -4 24.8
14:25 1020 30.12 849 25.07 25.7 78.2 13 -4.5 24
14:30 1020 30.12 849 25.07 25.9 78.5 13 -4.3 24.3
14:35 1020 30.12 849 25.07 26.2 79.2 13 -4.4 24.1
14:40 1020 30.12 849 25.07 25.8 78.5 14 -3.9 25
14:45 1020 30.12 849 25.07 26.2 79.1 13 -4.6 23.7
14:50 1020 30.12 849 25.07 26.3 79.4 12 -5.1 22.8
14:55 1020 30.12 849 25.07 26.1 79.1 12 -4.9 23.2
15:00 1020 30.12 849 25.07 26.5 79.7 12 -4.6 23.7
15:05 1020 30.12 849 25.07 26.4 79.5 13 -4.4 24.1
15:10 1020 30.12 849 25.07 26.2 79.1 13 -4.2 24.4
15:15 1019 30.09 849 25.07 26.7 80.1 12 -4.4 24.1
15:20 1020 30.12 849 25.07 26.6 79.8 13 -4.1 24.7
15:25 1019 30.09 849 25.07 26.5 79.6 13 -4.1 24.7
15:30 1019 30.09 849 25.07 26.4 79.6 13 -3.9 24.9
15:35 1019 30.09 848 25.04 26.1 79 13 -4.4 24.2
15:40 1019 30.09 848 25.04 26.2 79.2 13 -4 24.7
15:45 1019 30.09 848 25.04 26.4 79.5 13 -4.3 24.2
15:50 1019 30.09 848 25.04 26.5 79.7 13 -3.6 25.5
15:55 1019 30.09 848 25.04 26.4 79.6 13 -3.6 25.5
16:00 1019 30.09 848 25.04 26.7 80 13 -4.1 24.6
16:05 1019 30.09 848 25.04 26.3 79.4 13 -4 24.8
16:10 1019 30.09 848 25.04 26.3 79.4 13 -3.6 25.5
16:15 1019 30.09 848 25.04 26.4 79.6 13 -4.1 24.6
16:20 1019 30.09 848 25.04 26.4 79.5 13 -3.7 25.3
16:25 1019 30.09 848 25.04 26.4 79.5 14 -3.4 25.9
16:30 1019 30.09 848 25.04 26.5 79.7 13 -3.4 25.9
16:35 1019 30.09 848 25.04 26.5 79.6 14 -2.8 26.9
16:40 1019 30.09 848 25.04 26 78.8 13 -3.8 25.1
16:45 1019 30.09 848 25.04 25.9 78.7 13 -4.2 24.4
16:50 1019 30.09 848 25.04 26.3 79.3 14 -3.3 26.1
16:55 1018 30.06 848 25.04 26.3 79.3 14 -3.3 26
17:00 1018 30.06 847 25.01 26.1 79 13 -3.8 25.2
17:05 1018 30.06 847 25.01 26.1 79 14 -3.5 25.7
17:10 1018 30.06 847 25.01 26.2 79.1 13 -3.8 25.2
17:15 1018 30.06 847 25.01 26.3 79.3 14 -3.4 26
17:20 1018 30.06 847 25.01 26.5 79.8 14 -3.1 26.4
17:25 1018 30.06 847 25.01 26.1 78.9 14 -3.6 25.5
17:30 1018 30.06 848 25.04 25.8 78.4 14 -3.4 25.8
17:35 1018 30.06 848 25.04 25.6 78.2 14 -3.9 25
17:40 1018 30.06 848 25.04 25.6 78 14 -3.7 25.3
17:45 1018 30.06 848 25.04 25.6 78.2 15 -3.1 26.4
17:50 1018 30.06 848 25.04 25.4 77.6 14 -3.4 25.9
17:55 1018 30.06 847 25.01 25.2 77.4 14 -3.9 25
18:00 1018 30.06 847 25.01 25 77 15 -3.2 26.2
18:05 1018 30.06 847 25.01 24.8 76.6 16 -2.9 26.7
18:10 1018 30.06 847 25.01 24.7 76.4 16 -2.9 26.9
18:15 1018 30.06 847 25.01 24.6 76.3 16 -2.7 27.1
18:20 1018 30.06 847 25.01 24.4 75.9 16 -3 26.7
18:25 1018 30.06 847 25.01 24.1 75.4 16 -2.9 26.9
18:30 1018 30.06 847 25.01 24 75.1 16 -3 26.6
18:35 1018 30.06 847 25.01 23.9 75 17 -2.2 28.1
18:40 1018 30.06 847 25.01 23.9 74.9 16 -3 26.6
18:45 1018 30.06 847 25.01 23.7 74.6 18 -1.9 28.7
18:50 1018 30.06 847 25.01 23.6 74.4 18 -1.8 28.8
18:55 1018 30.06 847 25.01 23.3 74 19 -1.6 29
19:00 1018 30.06 847 25.01 23.2 73.7 18 -2 28.4
19:05 1018 30.06 848 25.04 23.1 73.5 18 -2 28.4
19:10 1018 30.06 847 25.01 22.8 73 19 -1.9 28.6
19:15 1018 30.06 848 25.04 22.5 72.5 21 -0.9 30.4
19:20 1018 30.06 848 25.04 22 71.7 20 -2.1 28.2
19:25 1018 30.06 848 25.04 22.2 72 19 -2.5 27.5
19:30 1018 30.06 848 25.04 22.1 71.9 21 -1.3 29.6
19:35 1018 30.06 848 25.04 21.4 70.5 22 -0.8 30.6
19:40 1018 30.06 848 25.04 21.1 70 19 -2.9 26.7
19:45 1018 30.06 848 25.04 21.4 70.5 20 -2.1 28.2
19:50 1018 30.06 848 25.04 21 69.9 20 -2.4 27.7
19:55 1018 30.06 848 25.04 20.9 69.6 20 -2.5 27.5
20:00 1018 30.06 848 25.04 21 69.7 20 -2.4 27.6
20:05 1019 30.09 848 25.04 21.1 69.9 20 -2.9 26.8
20:10 1019 30.09 848 25.04 21.2 70.1 19 -3 26.6
20:15 1019 30.09 848 25.04 21.3 70.3 19 -2.8 27
20:20 1019 30.09 848 25.04 20.9 69.7 20 -2.4 27.7
20:25 1019 30.09 848 25.04 20.7 69.3 20 -2.7 27.2
20:30 1019 30.09 848 25.04 20.5 68.9 21 -2.6 27.4
20:35 1019 30.09 848 25.04 20.6 69 21 -2.6 27.3
20:40 1019 30.09 848 25.04 20.6 69.1 21 -2.3 27.8
20:45 1019 30.09 848 25.04 20.6 69.2 21 -2.3 27.9
20:50 1019 30.09 848 25.04 20.6 69.1 21 -2.3 27.8
20:55 1019 30.09 848 25.04 20.7 69.2 20 -2.7 27.2
21:00 1019 30.09 848 25.04 20.6 69 20 -2.7 27.1
21:05 1019 30.09 848 25.04 20.4 68.8 20 -2.9 26.9
21:10 1018 30.06 848 25.04 20.6 69.1 20 -2.7 27.1
21:15 1018 30.06 848 25.04 20.7 69.2 21 -2.5 27.5
21:20 1018 30.06 848 25.04 20.6 69 20 -2.7 27.2
21:25 1018 30.06 848 25.04 20.5 68.9 20 -2.8 27
21:30 1018 30.06 848 25.04 20.4 68.7 19 -3.6 25.6
21:35 1018 30.06 848 25.04 20.6 69 19 -3.5 25.7
21:40 1018 30.06 848 25.04 20.6 69 20 -3.3 26.1
21:45 1018 30.06 848 25.04 20.6 69.1 18 -4.1 24.7
21:50 1018 30.06 848 25.04 20.8 69.5 19 -3.6 25.5
21:55 1018 30.06 848 25.04 20.5 69 19 -3.4 25.8
22:00 1018 30.06 848 25.04 20.2 68.3 21 -2.8 27
22:05 1018 30.06 848 25.04 19.3 66.7 26 -0.4 31.3
22:10 1018 30.06 848 25.04 18.3 64.9 26 -1.5 29.2
22:15 1018 30.06 848 25.04 17.9 64.2 27 -1 30.2
22:20 1018 30.06 848 25.04 17.7 63.9 27 -1.3 29.7
22:25 1019 30.09 848 25.04 17.8 64.1 27 -1.5 29.3
22:30 1019 30.09 848 25.04 17.9 64.2 26 -1.9 28.5
22:35 1019 30.09 848 25.04 18.2 64.8 25 -2 28.4
22:40 1019 30.09 848 25.04 18.6 65.5 25 -1.7 28.9
22:45 1019 30.09 848 25.04 18.5 65.3 26 -1.2 29.9
22:50 1019 30.09 848 25.04 18.1 64.6 27 -1.1 30
22:55 1019 30.09 848 25.04 17.9 64.2 25 -2.2 28
23:00 1019 30.09 848 25.04 18.2 64.8 26 -1.4 29.5
23:05 1019 30.09 848 25.04 18.4 65.1 24 -2.2 28.1
23:10 1019 30.09 848 25.04 18.4 65 27 -1 30.2
23:15 1019 30.09 848 25.04 18 64.3 27 -1 30.2
23:20 1019 30.09 848 25.04 17.8 64 27 -1.4 29.5
23:25 1019 30.09 848 25.04 17.7 63.8 28 -0.8 30.5
23:30 1019 30.09 848 25.04 16.8 62.2 31 -0.3 31.5
23:35 1019 30.09 848 25.04 16.1 60.9 32 -0.6 30.9
23:40 1019 30.09 848 25.04 15.9 60.5 31 -1.3 29.6
23:45 1019 30.09 848 25.04 15.9 60.5 32 -0.6 30.9
23:50 1019 30.09 848 25.04 15.6 60.1 34 -0.3 31.5
23:55 1019 30.09 848 25.04 15.4 59.6 35 0 32
24:00 1019 30.09 848 25.04 15 59 35 -0.4 31.4